Pinlon Star — V7QC5 — position and weather

sailwx.info

Track history (hours):
 
Tides and Currents Weather Stations Pressure Air Temp Water Temp Dewpoint Dewpoint Depression Visibility Wind Speed Wind Dir Waves Ship Positions

Pinlon Star

Last reported at 2017-Sep-14 03:20 UTC. Time now 2017-Sep-25 06:14 UTC.
Position S 05°21' E 010°59'.
Warning: this ship's position is 11 days out of date.

Length 260 m; draft 10.7 m.

Type: Cargo ship. MMSI: 538003330.

Date/timePositionNaut miles runAvg speedWind from/ knotsBaromVisibWave heightAir tempDewpointWater temp
2017-Sep-14 03:20S 05°21' E 010°59'618.1
2017-Sep-14 03:00S 05°15' E 011°02'917.5
2017-Sep-14 02:30S 05°09' E 011°08'918.3
2017-Sep-14 02:00S 05°06' E 011°17'918.1
2017-Sep-14 01:31S 05°03' E 011°25'  
2017-Sep-11 03:37S 04°52' E 011°38'313.5
2017-Sep-11 03:24S 04°54' E 011°35'613.5
2017-Sep-11 02:59S 04°58' E 011°32'612.8
2017-Sep-11 02:30S 05°03' E 011°29'713.5
2017-Sep-11 02:00S 05°05' E 011°22'713.6
2017-Sep-11 01:30S 05°07' E 011°15'612.9
2017-Sep-11 01:00S 05°08' E 011°09'713.8
2017-Sep-11 00:30S 05°03' E 011°03'  
2017-Sep-07 23:30N 04°29' W 003°19'  
Track history (hours):
 
Tides and Currents Weather Stations Pressure Air Temp Water Temp Dewpoint Dewpoint Depression Visibility Wind Speed Wind Dir Waves Ship Positions

Pinlon Star

Last reported at 2017-Sep-14 03:20 UTC. Time now 2017-Sep-25 06:14 UTC.
Position S 05°21' E 010°59'.
Warning: this ship's position is 11 days out of date.

Length 260 m; draft 10.7 m.

Type: Cargo ship. MMSI: 538003330.

Date/timePositionNaut miles runAvg speedWind from/ knotsBaromVisibWave heightAir tempDewpointWater temp
2017-Sep-14 03:20S 05°21' E 010°59'618.1
2017-Sep-14 03:00S 05°15' E 011°02'917.5
2017-Sep-14 02:30S 05°09' E 011°08'918.3
2017-Sep-14 02:00S 05°06' E 011°17'918.1
2017-Sep-14 01:31S 05°03' E 011°25'  
2017-Sep-11 03:37S 04°52' E 011°38'313.5
2017-Sep-11 03:24S 04°54' E 011°35'613.5
2017-Sep-11 02:59S 04°58' E 011°32'612.8
2017-Sep-11 02:30S 05°03' E 011°29'713.5
2017-Sep-11 02:00S 05°05' E 011°22'713.6
2017-Sep-11 01:30S 05°07' E 011°15'612.9
2017-Sep-11 01:00S 05°08' E 011°09'713.8
2017-Sep-11 00:30S 05°03' E 011°03'  
2017-Sep-07 23:30N 04°29' W 003°19'  

Dump ship's entire track history